sensor_id;sensor_type;location;lat;lon;timestamp;P1;durP1;ratioP1;P2;durP2;ratioP2
46713;SDS011;32445;51.376;10.874;2023-06-14T00:01:43;1.93;;;1.63;;
46713;SDS011;32445;51.376;10.874;2023-06-14T00:04:45;2.10;;;1.70;;
46713;SDS011;32445;51.376;10.874;2023-06-14T00:07:48;1.50;;;1.30;;
46713;SDS011;32445;51.376;10.874;2023-06-14T00:10:49;2.10;;;1.63;;
46713;SDS011;32445;51.376;10.874;2023-06-14T00:13:49;2.27;;;1.43;;
46713;SDS011;32445;51.376;10.874;2023-06-14T00:16:50;1.93;;;1.50;;
46713;SDS011;32445;51.376;10.874;2023-06-14T00:19:52;1.92;;;1.40;;
46713;SDS011;32445;51.376;10.874;2023-06-14T00:22:53;1.70;;;1.60;;
46713;SDS011;32445;51.376;10.874;2023-06-14T00:25:55;2.90;;;2.00;;
46713;SDS011;32445;51.376;10.874;2023-06-14T00:28:55;2.53;;;1.70;;
46713;SDS011;32445;51.376;10.874;2023-06-14T00:31:56;1.70;;;1.60;;
46713;SDS011;32445;51.376;10.874;2023-06-14T00:34:57;2.27;;;1.60;;
46713;SDS011;32445;51.376;10.874;2023-06-14T00:37:57;1.80;;;1.33;;
46713;SDS011;32445;51.376;10.874;2023-06-14T00:40:57;2.77;;;1.20;;
46713;SDS011;32445;51.376;10.874;2023-06-14T00:43:58;2.10;;;1.67;;
46713;SDS011;32445;51.376;10.874;2023-06-14T00:46:59;1.42;;;1.33;;
46713;SDS011;32445;51.376;10.874;2023-06-14T00:50:00;4.43;;;1.87;;
46713;SDS011;32445;51.376;10.874;2023-06-14T00:53:01;4.20;;;1.80;;
46713;SDS011;32445;51.376;10.874;2023-06-14T00:56:03;3.58;;;1.60;;
46713;SDS011;32445;51.376;10.874;2023-06-14T00:59:03;2.47;;;1.40;;
46713;SDS011;32445;51.376;10.874;2023-06-14T01:02:04;4.97;;;1.37;;
46713;SDS011;32445;51.376;10.874;2023-06-14T01:05:05;4.17;;;1.87;;
46713;SDS011;32445;51.376;10.874;2023-06-14T01:11:16;1.95;;;1.45;;
46713;SDS011;32445;51.376;10.874;2023-06-14T01:14:22;2.17;;;1.45;;
46713;SDS011;32445;51.376;10.874;2023-06-14T01:17:25;1.35;;;1.08;;
46713;SDS011;32445;51.376;10.874;2023-06-14T01:20:28;3.40;;;1.60;;
46713;SDS011;32445;51.376;10.874;2023-06-14T01:23:29;2.25;;;1.63;;
46713;SDS011;32445;51.376;10.874;2023-06-14T01:26:32;1.67;;;1.23;;
46713;SDS011;32445;51.376;10.874;2023-06-14T01:29:32;3.40;;;1.60;;
46713;SDS011;32445;51.376;10.874;2023-06-14T01:32:41;2.45;;;1.42;;
46713;SDS011;32445;51.376;10.874;2023-06-14T01:35:47;2.17;;;1.52;;
46713;SDS011;32445;51.376;10.874;2023-06-14T01:38:50;2.00;;;1.70;;
46713;SDS011;32445;51.376;10.874;2023-06-14T01:41:52;1.80;;;1.65;;
46713;SDS011;32445;51.376;10.874;2023-06-14T01:44:53;4.40;;;1.90;;
46713;SDS011;32445;51.376;10.874;2023-06-14T01:47:54;3.08;;;1.13;;
46713;SDS011;32445;51.376;10.874;2023-06-14T01:50:55;1.23;;;1.02;;
46713;SDS011;32445;51.376;10.874;2023-06-14T01:53:56;2.43;;;1.40;;
46713;SDS011;32445;51.376;10.874;2023-06-14T01:56:57;0.82;;;0.80;;
46713;SDS011;32445;51.376;10.874;2023-06-14T01:59:57;1.30;;;1.00;;
46713;SDS011;32445;51.376;10.874;2023-06-14T02:02:58;1.10;;;1.00;;
46713;SDS011;32445;51.376;10.874;2023-06-14T02:05:58;1.37;;;1.20;;
46713;SDS011;32445;51.376;10.874;2023-06-14T02:08:59;1.10;;;0.90;;
46713;SDS011;32445;51.376;10.874;2023-06-14T02:11:59;2.23;;;1.07;;
46713;SDS011;32445;51.376;10.874;2023-06-14T02:14:59;1.83;;;0.90;;
46713;SDS011;32445;51.376;10.874;2023-06-14T02:18:03;1.77;;;1.00;;
46713;SDS011;32445;51.376;10.874;2023-06-14T02:21:04;1.83;;;1.27;;
46713;SDS011;32445;51.376;10.874;2023-06-14T02:24:05;1.63;;;1.20;;
46713;SDS011;32445;51.376;10.874;2023-06-14T02:27:06;0.90;;;0.90;;
46713;SDS011;32445;51.376;10.874;2023-06-14T02:30:06;2.90;;;1.37;;
46713;SDS011;32445;51.376;10.874;2023-06-14T02:33:07;1.33;;;1.10;;
46713;SDS011;32445;51.376;10.874;2023-06-14T02:36:08;1.27;;;1.10;;
46713;SDS011;32445;51.376;10.874;2023-06-14T02:39:09;3.00;;;1.37;;
46713;SDS011;32445;51.376;10.874;2023-06-14T02:45:10;2.13;;;1.30;;
46713;SDS011;32445;51.376;10.874;2023-06-14T02:48:10;1.40;;;1.30;;
46713;SDS011;32445;51.376;10.874;2023-06-14T02:51:11;4.03;;;1.50;;
46713;SDS011;32445;51.376;10.874;2023-06-14T02:54:12;1.65;;;1.50;;
46713;SDS011;32445;51.376;10.874;2023-06-14T02:57:13;1.50;;;1.40;;
46713;SDS011;32445;51.376;10.874;2023-06-14T03:00:14;1.70;;;1.13;;
46713;SDS011;32445;51.376;10.874;2023-06-14T03:03:14;3.80;;;1.47;;
46713;SDS011;32445;51.376;10.874;2023-06-14T03:06:16;1.80;;;1.55;;
46713;SDS011;32445;51.376;10.874;2023-06-14T03:09:16;4.33;;;1.33;;
46713;SDS011;32445;51.376;10.874;2023-06-14T03:12:17;1.33;;;1.23;;
46713;SDS011;32445;51.376;10.874;2023-06-14T03:15:17;1.40;;;1.30;;
46713;SDS011;32445;51.376;10.874;2023-06-14T03:18:18;2.53;;;2.20;;
46713;SDS011;32445;51.376;10.874;2023-06-14T03:21:19;1.70;;;1.60;;
46713;SDS011;32445;51.376;10.874;2023-06-14T03:24:20;2.28;;;1.58;;
46713;SDS011;32445;51.376;10.874;2023-06-14T03:27:20;6.17;;;1.50;;
46713;SDS011;32445;51.376;10.874;2023-06-14T03:30:21;2.17;;;1.87;;
46713;SDS011;32445;51.376;10.874;2023-06-14T03:33:21;2.20;;;1.53;;
46713;SDS011;32445;51.376;10.874;2023-06-14T03:36:22;2.63;;;1.43;;
46713;SDS011;32445;51.376;10.874;2023-06-14T03:39:22;2.17;;;1.50;;
46713;SDS011;32445;51.376;10.874;2023-06-14T03:42:23;4.20;;;1.43;;
46713;SDS011;32445;51.376;10.874;2023-06-14T03:45:23;2.77;;;1.77;;
46713;SDS011;32445;51.376;10.874;2023-06-14T03:48:23;1.93;;;1.40;;
46713;SDS011;32445;51.376;10.874;2023-06-14T03:51:24;5.20;;;1.37;;
46713;SDS011;32445;51.376;10.874;2023-06-14T03:54:25;5.63;;;1.52;;
46713;SDS011;32445;51.376;10.874;2023-06-14T03:57:26;5.45;;;1.92;;
46713;SDS011;32445;51.376;10.874;2023-06-14T04:00:26;2.20;;;1.50;;
46713;SDS011;32445;51.376;10.874;2023-06-14T04:03:27;2.23;;;1.53;;
46713;SDS011;32445;51.376;10.874;2023-06-14T04:06:29;4.05;;;1.83;;
46713;SDS011;32445;51.376;10.874;2023-06-14T04:09:32;4.53;;;1.70;;
46713;SDS011;32445;51.376;10.874;2023-06-14T04:12:33;4.83;;;1.83;;
46713;SDS011;32445;51.376;10.874;2023-06-14T04:15:33;2.43;;;1.53;;
46713;SDS011;32445;51.376;10.874;2023-06-14T04:18:34;3.20;;;1.53;;
46713;SDS011;32445;51.376;10.874;2023-06-14T04:21:34;6.50;;;1.43;;
46713;SDS011;32445;51.376;10.874;2023-06-14T04:24:34;2.70;;;1.53;;
46713;SDS011;32445;51.376;10.874;2023-06-14T04:27:35;8.97;;;2.03;;
46713;SDS011;32445;51.376;10.874;2023-06-14T04:30:36;2.00;;;1.57;;
46713;SDS011;32445;51.376;10.874;2023-06-14T04:33:38;1.58;;;1.23;;
46713;SDS011;32445;51.376;10.874;2023-06-14T04:36:43;1.35;;;1.20;;
46713;SDS011;32445;51.376;10.874;2023-06-14T04:39:49;3.60;;;1.55;;
46713;SDS011;32445;51.376;10.874;2023-06-14T04:42:50;1.70;;;1.40;;
46713;SDS011;32445;51.376;10.874;2023-06-14T04:45:50;2.60;;;1.70;;
46713;SDS011;32445;51.376;10.874;2023-06-14T04:48:51;4.33;;;1.50;;
46713;SDS011;32445;51.376;10.874;2023-06-14T04:51:52;1.93;;;1.60;;
46713;SDS011;32445;51.376;10.874;2023-06-14T04:54:59;3.40;;;1.73;;
46713;SDS011;32445;51.376;10.874;2023-06-14T04:57:59;3.67;;;1.30;;
46713;SDS011;32445;51.376;10.874;2023-06-14T05:01:00;2.30;;;2.10;;
46713;SDS011;32445;51.376;10.874;2023-06-14T05:04:01;1.92;;;1.30;;
46713;SDS011;32445;51.376;10.874;2023-06-14T05:07:02;3.33;;;1.53;;
46713;SDS011;32445;51.376;10.874;2023-06-14T05:10:02;1.20;;;1.10;;
46713;SDS011;32445;51.376;10.874;2023-06-14T05:13:03;1.42;;;1.33;;
46713;SDS011;32445;51.376;10.874;2023-06-14T05:16:04;1.70;;;1.20;;
46713;SDS011;32445;51.376;10.874;2023-06-14T05:19:04;2.27;;;1.43;;
46713;SDS011;32445;51.376;10.874;2023-06-14T05:22:04;3.80;;;2.00;;
46713;SDS011;32445;51.376;10.874;2023-06-14T05:25:05;2.90;;;1.87;;
46713;SDS011;32445;51.376;10.874;2023-06-14T05:28:06;2.03;;;1.90;;
46713;SDS011;32445;51.376;10.874;2023-06-14T05:31:06;1.97;;;1.77;;
46713;SDS011;32445;51.376;10.874;2023-06-14T05:34:06;2.10;;;1.90;;
46713;SDS011;32445;51.376;10.874;2023-06-14T05:37:07;2.60;;;1.97;;
46713;SDS011;32445;51.376;10.874;2023-06-14T05:40:07;7.33;;;2.20;;
46713;SDS011;32445;51.376;10.874;2023-06-14T05:43:09;2.25;;;2.13;;
46713;SDS011;32445;51.376;10.874;2023-06-14T05:46:10;5.25;;;2.28;;
46713;SDS011;32445;51.376;10.874;2023-06-14T05:49:10;2.10;;;1.90;;
46713;SDS011;32445;51.376;10.874;2023-06-14T05:52:12;3.53;;;2.35;;
46713;SDS011;32445;51.376;10.874;2023-06-14T05:55:13;2.63;;;2.30;;
46713;SDS011;32445;51.376;10.874;2023-06-14T05:58:13;3.20;;;2.30;;
46713;SDS011;32445;51.376;10.874;2023-06-14T06:01:14;2.43;;;2.10;;
46713;SDS011;32445;51.376;10.874;2023-06-14T06:04:15;2.53;;;2.33;;
46713;SDS011;32445;51.376;10.874;2023-06-14T06:07:15;3.00;;;2.67;;
46713;SDS011;32445;51.376;10.874;2023-06-14T06:10:16;2.40;;;1.87;;
46713;SDS011;32445;51.376;10.874;2023-06-14T06:13:16;2.47;;;2.30;;
46713;SDS011;32445;51.376;10.874;2023-06-14T06:16:17;3.50;;;2.30;;
46713;SDS011;32445;51.376;10.874;2023-06-14T06:19:17;11.50;;;2.77;;
46713;SDS011;32445;51.376;10.874;2023-06-14T06:22:17;3.83;;;3.20;;
46713;SDS011;32445;51.376;10.874;2023-06-14T06:25:18;2.73;;;2.37;;
46713;SDS011;32445;51.376;10.874;2023-06-14T06:28:19;3.70;;;2.97;;
46713;SDS011;32445;51.376;10.874;2023-06-14T06:31:20;4.22;;;3.03;;
46713;SDS011;32445;51.376;10.874;2023-06-14T06:34:22;4.43;;;2.63;;
46713;SDS011;32445;51.376;10.874;2023-06-14T06:37:22;2.93;;;2.73;;
46713;SDS011;32445;51.376;10.874;2023-06-14T06:40:23;5.70;;;2.93;;
46713;SDS011;32445;51.376;10.874;2023-06-14T06:43:23;2.80;;;2.60;;
46713;SDS011;32445;51.376;10.874;2023-06-14T06:46:23;3.70;;;2.57;;
46713;SDS011;32445;51.376;10.874;2023-06-14T06:49:24;2.53;;;2.30;;
46713;SDS011;32445;51.376;10.874;2023-06-14T06:52:24;4.97;;;3.40;;
46713;SDS011;32445;51.376;10.874;2023-06-14T06:55:24;3.53;;;3.03;;
46713;SDS011;32445;51.376;10.874;2023-06-14T06:58:25;3.60;;;3.30;;
46713;SDS011;32445;51.376;10.874;2023-06-14T07:01:26;2.97;;;2.77;;
46713;SDS011;32445;51.376;10.874;2023-06-14T07:04:29;6.32;;;3.25;;
46713;SDS011;32445;51.376;10.874;2023-06-14T07:07:29;3.03;;;2.80;;
46713;SDS011;32445;51.376;10.874;2023-06-14T07:10:29;4.70;;;2.63;;
46713;SDS011;32445;51.376;10.874;2023-06-14T07:13:31;3.83;;;2.10;;
46713;SDS011;32445;51.376;10.874;2023-06-14T07:16:31;3.30;;;3.00;;
46713;SDS011;32445;51.376;10.874;2023-06-14T07:19:32;3.33;;;2.80;;
46713;SDS011;32445;51.376;10.874;2023-06-14T07:22:33;4.10;;;2.00;;
46713;SDS011;32445;51.376;10.874;2023-06-14T07:25:33;3.90;;;2.70;;
46713;SDS011;32445;51.376;10.874;2023-06-14T07:28:33;3.70;;;3.40;;
46713;SDS011;32445;51.376;10.874;2023-06-14T07:31:34;4.17;;;2.40;;
46713;SDS011;32445;51.376;10.874;2023-06-14T07:34:34;3.30;;;3.00;;
46713;SDS011;32445;51.376;10.874;2023-06-14T07:37:35;2.67;;;2.47;;
46713;SDS011;32445;51.376;10.874;2023-06-14T07:40:36;3.83;;;2.97;;
46713;SDS011;32445;51.376;10.874;2023-06-14T07:43:36;2.93;;;2.43;;
46713;SDS011;32445;51.376;10.874;2023-06-14T07:46:36;4.70;;;3.00;;
46713;SDS011;32445;51.376;10.874;2023-06-14T07:49:38;3.13;;;2.83;;
46713;SDS011;32445;51.376;10.874;2023-06-14T07:52:38;3.20;;;3.00;;
46713;SDS011;32445;51.376;10.874;2023-06-14T07:55:38;4.10;;;2.50;;
46713;SDS011;32445;51.376;10.874;2023-06-14T07:58:39;5.57;;;2.70;;
46713;SDS011;32445;51.376;10.874;2023-06-14T08:01:39;3.63;;;2.70;;
46713;SDS011;32445;51.376;10.874;2023-06-14T08:04:40;3.97;;;2.77;;
46713;SDS011;32445;51.376;10.874;2023-06-14T08:07:40;2.60;;;2.33;;
46713;SDS011;32445;51.376;10.874;2023-06-14T08:10:41;3.07;;;2.67;;
46713;SDS011;32445;51.376;10.874;2023-06-14T08:13:42;3.33;;;2.83;;
46713;SDS011;32445;51.376;10.874;2023-06-14T08:16:42;3.30;;;2.93;;
46713;SDS011;32445;51.376;10.874;2023-06-14T08:19:42;4.40;;;2.60;;
46713;SDS011;32445;51.376;10.874;2023-06-14T08:22:43;2.77;;;2.57;;
46713;SDS011;32445;51.376;10.874;2023-06-14T08:25:45;6.05;;;3.20;;
46713;SDS011;32445;51.376;10.874;2023-06-14T08:28:46;4.57;;;2.60;;
46713;SDS011;32445;51.376;10.874;2023-06-14T08:31:46;2.03;;;1.83;;
46713;SDS011;32445;51.376;10.874;2023-06-14T08:34:47;3.27;;;2.03;;
46713;SDS011;32445;51.376;10.874;2023-06-14T08:37:47;5.27;;;2.60;;
46713;SDS011;32445;51.376;10.874;2023-06-14T08:40:47;2.73;;;2.53;;
46713;SDS011;32445;51.376;10.874;2023-06-14T08:43:52;5.35;;;2.85;;
46713;SDS011;32445;51.376;10.874;2023-06-14T08:46:52;2.50;;;2.30;;
46713;SDS011;32445;51.376;10.874;2023-06-14T08:49:57;4.63;;;2.88;;
46713;SDS011;32445;51.376;10.874;2023-06-14T08:52:59;3.03;;;2.70;;
46713;SDS011;32445;51.376;10.874;2023-06-14T08:56:02;3.30;;;2.85;;
46713;SDS011;32445;51.376;10.874;2023-06-14T08:59:04;4.70;;;2.63;;
46713;SDS011;32445;51.376;10.874;2023-06-14T09:02:06;3.25;;;2.40;;
46713;SDS011;32445;51.376;10.874;2023-06-14T09:05:07;2.83;;;2.63;;
46713;SDS011;32445;51.376;10.874;2023-06-14T09:11:13;5.88;;;2.92;;
46713;SDS011;32445;51.376;10.874;2023-06-14T09:14:15;2.55;;;2.33;;
46713;SDS011;32445;51.376;10.874;2023-06-14T09:17:15;5.90;;;2.63;;
46713;SDS011;32445;51.376;10.874;2023-06-14T09:20:15;6.83;;;2.77;;
46713;SDS011;32445;51.376;10.874;2023-06-14T09:23:21;6.25;;;3.00;;
46713;SDS011;32445;51.376;10.874;2023-06-14T09:26:22;4.65;;;2.50;;
46713;SDS011;32445;51.376;10.874;2023-06-14T09:29:27;2.78;;;2.55;;
46713;SDS011;32445;51.376;10.874;2023-06-14T09:32:27;16.23;;;3.17;;
46713;SDS011;32445;51.376;10.874;2023-06-14T09:35:28;4.77;;;2.43;;
46713;SDS011;32445;51.376;10.874;2023-06-14T09:38:31;3.65;;;2.03;;
46713;SDS011;32445;51.376;10.874;2023-06-14T09:41:38;5.28;;;2.05;;
46713;SDS011;32445;51.376;10.874;2023-06-14T09:44:39;5.80;;;2.30;;
46713;SDS011;32445;51.376;10.874;2023-06-14T09:47:40;3.50;;;1.83;;
46713;SDS011;32445;51.376;10.874;2023-06-14T09:50:41;2.70;;;2.50;;
46713;SDS011;32445;51.376;10.874;2023-06-14T09:53:42;2.60;;;1.98;;
46713;SDS011;32445;51.376;10.874;2023-06-14T09:56:47;3.75;;;2.35;;
46713;SDS011;32445;51.376;10.874;2023-06-14T09:59:51;3.63;;;2.03;;
46713;SDS011;32445;51.376;10.874;2023-06-14T10:02:54;4.57;;;2.13;;
46713;SDS011;32445;51.376;10.874;2023-06-14T10:06:02;2.08;;;1.92;;
46713;SDS011;32445;51.376;10.874;2023-06-14T10:09:07;3.15;;;1.92;;
46713;SDS011;32445;51.376;10.874;2023-06-14T10:12:09;3.95;;;1.90;;
46713;SDS011;32445;51.376;10.874;2023-06-14T10:15:17;1.92;;;1.73;;
46713;SDS011;32445;51.376;10.874;2023-06-14T10:21:55;3.78;;;2.17;;
46713;SDS011;32445;51.376;10.874;2023-06-14T10:24:57;3.85;;;2.50;;
46713;SDS011;32445;51.376;10.874;2023-06-14T10:28:05;2.23;;;1.80;;
46713;SDS011;32445;51.376;10.874;2023-06-14T10:31:16;2.83;;;2.42;;
46713;SDS011;32445;51.376;10.874;2023-06-14T10:34:26;6.60;;;1.70;;
46713;SDS011;32445;51.376;10.874;2023-06-14T10:37:28;1.50;;;1.40;;
46713;SDS011;32445;51.376;10.874;2023-06-14T10:40:29;1.77;;;1.53;;
46713;SDS011;32445;51.376;10.874;2023-06-14T10:43:30;3.75;;;1.55;;
46713;SDS011;32445;51.376;10.874;2023-06-14T10:46:31;4.30;;;1.57;;
46713;SDS011;32445;51.376;10.874;2023-06-14T10:52:42;2.70;;;1.80;;
46713;SDS011;32445;51.376;10.874;2023-06-14T10:55:43;3.97;;;1.60;;
46713;SDS011;32445;51.376;10.874;2023-06-14T10:58:44;1.63;;;1.53;;
46713;SDS011;32445;51.376;10.874;2023-06-14T11:01:53;2.03;;;1.07;;
46713;SDS011;32445;51.376;10.874;2023-06-14T11:04:56;1.58;;;1.30;;
46713;SDS011;32445;51.376;10.874;2023-06-14T11:11:24;4.32;;;1.65;;
46713;SDS011;32445;51.376;10.874;2023-06-14T11:14:31;5.22;;;1.88;;
46713;SDS011;32445;51.376;10.874;2023-06-14T11:17:32;1.90;;;1.50;;
46713;SDS011;32445;51.376;10.874;2023-06-14T11:20:34;3.10;;;1.02;;
46713;SDS011;32445;51.376;10.874;2023-06-14T11:23:38;3.10;;;1.35;;
46713;SDS011;32445;51.376;10.874;2023-06-14T11:26:39;4.17;;;1.70;;
46713;SDS011;32445;51.376;10.874;2023-06-14T11:29:47;1.38;;;1.10;;
46713;SDS011;32445;51.376;10.874;2023-06-14T11:32:48;3.13;;;1.23;;
46713;SDS011;32445;51.376;10.874;2023-06-14T11:35:50;4.13;;;1.58;;
46713;SDS011;32445;51.376;10.874;2023-06-14T11:41:57;1.98;;;1.27;;
46713;SDS011;32445;51.376;10.874;2023-06-14T11:45:01;1.20;;;1.00;;
46713;SDS011;32445;51.376;10.874;2023-06-14T11:48:03;3.35;;;1.33;;
46713;SDS011;32445;51.376;10.874;2023-06-14T11:51:03;1.63;;;1.50;;
46713;SDS011;32445;51.376;10.874;2023-06-14T11:54:04;1.30;;;1.20;;
46713;SDS011;32445;51.376;10.874;2023-06-14T11:57:09;2.65;;;1.05;;
46713;SDS011;32445;51.376;10.874;2023-06-14T12:00:10;1.52;;;1.02;;
46713;SDS011;32445;51.376;10.874;2023-06-14T12:03:15;3.35;;;1.30;;
46713;SDS011;32445;51.376;10.874;2023-06-14T12:06:16;2.55;;;1.30;;
46713;SDS011;32445;51.376;10.874;2023-06-14T12:09:25;2.40;;;1.17;;
46713;SDS011;32445;51.376;10.874;2023-06-14T12:12:26;2.08;;;1.13;;
46713;SDS011;32445;51.376;10.874;2023-06-14T12:15:28;1.33;;;1.10;;
46713;SDS011;32445;51.376;10.874;2023-06-14T12:18:32;1.25;;;1.10;;
46713;SDS011;32445;51.376;10.874;2023-06-14T12:21:37;3.22;;;1.05;;
46713;SDS011;32445;51.376;10.874;2023-06-14T12:24:38;1.35;;;1.25;;
46713;SDS011;32445;51.376;10.874;2023-06-14T12:27:42;1.23;;;1.00;;
46713;SDS011;32445;51.376;10.874;2023-06-14T12:30:42;2.23;;;0.83;;
46713;SDS011;32445;51.376;10.874;2023-06-14T12:33:42;1.40;;;0.77;;
46713;SDS011;32445;51.376;10.874;2023-06-14T12:36:43;1.60;;;0.85;;
46713;SDS011;32445;51.376;10.874;2023-06-14T12:39:46;1.40;;;0.98;;
46713;SDS011;32445;51.376;10.874;2023-06-14T12:42:46;1.27;;;1.10;;
46713;SDS011;32445;51.376;10.874;2023-06-14T12:45:49;3.58;;;1.00;;
46713;SDS011;32445;51.376;10.874;2023-06-14T12:48:49;1.47;;;1.10;;
46713;SDS011;32445;51.376;10.874;2023-06-14T12:51:50;1.10;;;0.73;;
46713;SDS011;32445;51.376;10.874;2023-06-14T12:54:50;2.03;;;0.90;;
46713;SDS011;32445;51.376;10.874;2023-06-14T13:00:51;3.17;;;0.88;;
46713;SDS011;32445;51.376;10.874;2023-06-14T13:09:54;1.03;;;0.90;;
46713;SDS011;32445;51.376;10.874;2023-06-14T13:12:54;2.92;;;1.02;;
46713;SDS011;32445;51.376;10.874;2023-06-14T13:18:55;1.70;;;1.07;;
46713;SDS011;32445;51.376;10.874;2023-06-14T13:21:55;3.43;;;1.13;;
46713;SDS011;32445;51.376;10.874;2023-06-14T13:24:55;3.77;;;1.13;;
46713;SDS011;32445;51.376;10.874;2023-06-14T13:27:56;2.47;;;1.03;;
46713;SDS011;32445;51.376;10.874;2023-06-14T13:30:56;1.15;;;1.00;;
46713;SDS011;32445;51.376;10.874;2023-06-14T13:36:57;1.77;;;1.10;;
46713;SDS011;32445;51.376;10.874;2023-06-14T13:39:58;3.00;;;1.08;;
46713;SDS011;32445;51.376;10.874;2023-06-14T13:42:59;1.83;;;1.33;;
46713;SDS011;32445;51.376;10.874;2023-06-14T13:49:00;2.13;;;0.97;;
46713;SDS011;32445;51.376;10.874;2023-06-14T13:52:02;3.83;;;1.15;;
46713;SDS011;32445;51.376;10.874;2023-06-14T13:55:02;2.40;;;1.00;;
46713;SDS011;32445;51.376;10.874;2023-06-14T14:01:03;4.37;;;1.07;;
46713;SDS011;32445;51.376;10.874;2023-06-14T14:07:05;1.25;;;1.00;;
46713;SDS011;32445;51.376;10.874;2023-06-14T14:10:06;2.45;;;1.48;;
46713;SDS011;32445;51.376;10.874;2023-06-14T14:13:07;2.33;;;1.10;;
46713;SDS011;32445;51.376;10.874;2023-06-14T14:19:07;2.47;;;1.10;;
46713;SDS011;32445;51.376;10.874;2023-06-14T14:25:08;1.77;;;1.40;;
46713;SDS011;32445;51.376;10.874;2023-06-14T14:28:09;6.50;;;1.88;;
46713;SDS011;32445;51.376;10.874;2023-06-14T14:31:11;3.78;;;1.48;;
46713;SDS011;32445;51.376;10.874;2023-06-14T14:34:11;3.60;;;1.70;;
46713;SDS011;32445;51.376;10.874;2023-06-14T14:40:15;4.10;;;1.83;;
46713;SDS011;32445;51.376;10.874;2023-06-14T14:43:15;3.55;;;1.65;;
46713;SDS011;32445;51.376;10.874;2023-06-14T14:46:15;1.40;;;1.20;;
46713;SDS011;32445;51.376;10.874;2023-06-14T14:52:17;1.67;;;1.43;;
46713;SDS011;32445;51.376;10.874;2023-06-14T14:55:17;1.95;;;1.60;;
46713;SDS011;32445;51.376;10.874;2023-06-14T15:01:18;7.35;;;1.40;;
46713;SDS011;32445;51.376;10.874;2023-06-14T15:04:18;3.78;;;1.65;;
46713;SDS011;32445;51.376;10.874;2023-06-14T15:10:19;1.73;;;1.63;;
46713;SDS011;32445;51.376;10.874;2023-06-14T15:16:20;2.03;;;1.60;;
46713;SDS011;32445;51.376;10.874;2023-06-14T15:22:21;4.53;;;1.67;;
46713;SDS011;32445;51.376;10.874;2023-06-14T15:28:21;4.67;;;1.27;;
46713;SDS011;32445;51.376;10.874;2023-06-14T15:31:24;3.80;;;1.30;;
46713;SDS011;32445;51.376;10.874;2023-06-14T15:34:27;2.78;;;1.63;;
46713;SDS011;32445;51.376;10.874;2023-06-14T15:40:28;6.37;;;1.47;;
46713;SDS011;32445;51.376;10.874;2023-06-14T15:46:29;3.23;;;1.47;;
46713;SDS011;32445;51.376;10.874;2023-06-14T15:49:29;2.00;;;1.70;;
46713;SDS011;32445;51.376;10.874;2023-06-14T15:55:30;2.67;;;1.53;;
46713;SDS011;32445;51.376;10.874;2023-06-14T16:01:31;4.87;;;1.67;;
46713;SDS011;32445;51.376;10.874;2023-06-14T16:07:31;1.63;;;1.37;;
46713;SDS011;32445;51.376;10.874;2023-06-14T16:10:32;3.17;;;1.50;;
46713;SDS011;32445;51.376;10.874;2023-06-14T16:13:32;2.50;;;1.73;;
46713;SDS011;32445;51.376;10.874;2023-06-14T16:19:33;2.57;;;1.60;;
46713;SDS011;32445;51.376;10.874;2023-06-14T16:25:33;2.80;;;2.03;;
46713;SDS011;32445;51.376;10.874;2023-06-14T16:28:34;3.47;;;1.80;;
46713;SDS011;32445;51.376;10.874;2023-06-14T16:34:34;2.47;;;1.57;;
46713;SDS011;32445;51.376;10.874;2023-06-14T16:40:36;5.40;;;1.43;;
46713;SDS011;32445;51.376;10.874;2023-06-14T16:46:37;1.83;;;1.43;;
46713;SDS011;32445;51.376;10.874;2023-06-14T16:49:37;3.00;;;1.23;;
46713;SDS011;32445;51.376;10.874;2023-06-14T16:55:38;4.63;;;2.00;;
46713;SDS011;32445;51.376;10.874;2023-06-14T16:58:38;2.33;;;1.60;;
46713;SDS011;32445;51.376;10.874;2023-06-14T17:04:39;1.77;;;1.67;;
46713;SDS011;32445;51.376;10.874;2023-06-14T17:07:40;4.53;;;2.00;;
46713;SDS011;32445;51.376;10.874;2023-06-14T17:10:40;7.32;;;1.90;;
46713;SDS011;32445;51.376;10.874;2023-06-14T17:16:41;5.57;;;2.13;;
46713;SDS011;32445;51.376;10.874;2023-06-14T17:19:41;4.03;;;1.75;;
46713;SDS011;32445;51.376;10.874;2023-06-14T17:25:44;3.53;;;1.95;;
46713;SDS011;32445;51.376;10.874;2023-06-14T17:31:45;2.27;;;1.33;;
46713;SDS011;32445;51.376;10.874;2023-06-14T17:37:45;11.50;;;2.57;;
46713;SDS011;32445;51.376;10.874;2023-06-14T17:40:46;4.43;;;1.20;;
46713;SDS011;32445;51.376;10.874;2023-06-14T17:46:46;1.90;;;1.70;;
46713;SDS011;32445;51.376;10.874;2023-06-14T17:52:51;1.80;;;1.40;;
46713;SDS011;32445;51.376;10.874;2023-06-14T17:58:51;2.97;;;1.83;;
46713;SDS011;32445;51.376;10.874;2023-06-14T18:01:53;2.90;;;1.70;;
46713;SDS011;32445;51.376;10.874;2023-06-14T18:07:54;3.63;;;1.40;;
46713;SDS011;32445;51.376;10.874;2023-06-14T18:10:54;3.55;;;1.67;;
46713;SDS011;32445;51.376;10.874;2023-06-14T18:13:54;2.13;;;1.55;;
46713;SDS011;32445;51.376;10.874;2023-06-14T18:16:55;4.30;;;1.40;;
46713;SDS011;32445;51.376;10.874;2023-06-14T18:22:56;3.80;;;1.77;;
46713;SDS011;32445;51.376;10.874;2023-06-14T18:28:56;3.60;;;1.60;;
46713;SDS011;32445;51.376;10.874;2023-06-14T18:34:57;3.07;;;1.63;;
46713;SDS011;32445;51.376;10.874;2023-06-14T18:40:58;5.30;;;1.80;;
46713;SDS011;32445;51.376;10.874;2023-06-14T18:46:59;1.60;;;1.50;;
46713;SDS011;32445;51.376;10.874;2023-06-14T18:52:59;4.03;;;1.60;;
46713;SDS011;32445;51.376;10.874;2023-06-14T18:59:00;2.27;;;1.60;;
46713;SDS011;32445;51.376;10.874;2023-06-14T19:02:03;3.72;;;1.80;;
46713;SDS011;32445;51.376;10.874;2023-06-14T19:05:04;1.75;;;1.35;;
46713;SDS011;32445;51.376;10.874;2023-06-14T19:11:06;3.42;;;1.45;;
46713;SDS011;32445;51.376;10.874;2023-06-14T19:14:10;2.15;;;1.52;;
46713;SDS011;32445;51.376;10.874;2023-06-14T19:17:11;1.42;;;1.33;;
46713;SDS011;32445;51.376;10.874;2023-06-14T19:20:11;2.37;;;1.60;;
46713;SDS011;32445;51.376;10.874;2023-06-14T19:26:12;5.20;;;1.40;;
46713;SDS011;32445;51.376;10.874;2023-06-14T19:29:12;3.20;;;2.20;;
46713;SDS011;32445;51.376;10.874;2023-06-14T19:32:13;4.78;;;1.38;;
46713;SDS011;32445;51.376;10.874;2023-06-14T19:35:13;2.80;;;1.75;;
46713;SDS011;32445;51.376;10.874;2023-06-14T19:38:13;2.15;;;1.60;;
46713;SDS011;32445;51.376;10.874;2023-06-14T19:41:15;2.60;;;1.65;;
46713;SDS011;32445;51.376;10.874;2023-06-14T19:44:17;2.42;;;1.45;;
46713;SDS011;32445;51.376;10.874;2023-06-14T19:47:17;2.90;;;2.03;;
46713;SDS011;32445;51.376;10.874;2023-06-14T19:50:17;1.98;;;1.83;;
46713;SDS011;32445;51.376;10.874;2023-06-14T19:53:18;1.80;;;1.50;;
46713;SDS011;32445;51.376;10.874;2023-06-14T19:56:18;2.53;;;1.70;;
46713;SDS011;32445;51.376;10.874;2023-06-14T19:59:22;2.47;;;1.92;;
46713;SDS011;32445;51.376;10.874;2023-06-14T20:02:22;1.87;;;1.77;;
46713;SDS011;32445;51.376;10.874;2023-06-14T20:05:23;4.43;;;2.77;;
46713;SDS011;32445;51.376;10.874;2023-06-14T20:08:23;3.95;;;1.90;;
46713;SDS011;32445;51.376;10.874;2023-06-14T20:11:24;4.32;;;2.15;;
46713;SDS011;32445;51.376;10.874;2023-06-14T20:17:26;4.60;;;1.93;;
46713;SDS011;32445;51.376;10.874;2023-06-14T20:20:26;2.37;;;2.17;;
46713;SDS011;32445;51.376;10.874;2023-06-14T20:23:27;3.57;;;1.63;;
46713;SDS011;32445;51.376;10.874;2023-06-14T20:26:27;2.67;;;1.65;;
46713;SDS011;32445;51.376;10.874;2023-06-14T20:29:28;4.70;;;2.07;;
46713;SDS011;32445;51.376;10.874;2023-06-14T20:32:28;8.37;;;2.33;;
46713;SDS011;32445;51.376;10.874;2023-06-14T20:35:29;4.70;;;2.10;;
46713;SDS011;32445;51.376;10.874;2023-06-14T20:38:29;3.33;;;2.20;;